sensor_id;sensor_type;location;lat;lon;timestamp;P1;durP1;ratioP1;P2;durP2;ratioP2
13785;SDS011;47474;48.824;9.384;2024-03-02T00:01:25;12.07;;;9.07;;
13785;SDS011;47474;48.824;9.384;2024-03-02T00:03:52;8.97;;;7.93;;
13785;SDS011;47474;48.824;9.384;2024-03-02T00:06:19;11.60;;;9.13;;
13785;SDS011;47474;48.824;9.384;2024-03-02T00:08:46;10.13;;;8.13;;
13785;SDS011;47474;48.824;9.384;2024-03-02T00:11:13;8.80;;;7.90;;
13785;SDS011;47474;48.824;9.384;2024-03-02T00:13:40;9.90;;;8.73;;
13785;SDS011;47474;48.824;9.384;2024-03-02T00:16:07;10.37;;;8.60;;
13785;SDS011;47474;48.824;9.384;2024-03-02T00:18:35;14.00;;;8.23;;
13785;SDS011;47474;48.824;9.384;2024-03-02T00:21:05;11.57;;;8.47;;
13785;SDS011;47474;48.824;9.384;2024-03-02T00:23:35;11.23;;;8.43;;
13785;SDS011;47474;48.824;9.384;2024-03-02T00:26:02;9.77;;;8.30;;
13785;SDS011;47474;48.824;9.384;2024-03-02T00:28:32;11.23;;;7.80;;
13785;SDS011;47474;48.824;9.384;2024-03-02T00:31:01;12.77;;;8.83;;
13785;SDS011;47474;48.824;9.384;2024-03-02T00:33:30;9.13;;;8.13;;
13785;SDS011;47474;48.824;9.384;2024-03-02T00:36:00;10.67;;;8.97;;
13785;SDS011;47474;48.824;9.384;2024-03-02T00:38:28;9.33;;;7.53;;
13785;SDS011;47474;48.824;9.384;2024-03-02T00:40:55;8.77;;;7.87;;
13785;SDS011;47474;48.824;9.384;2024-03-02T00:46:15;11.93;;;8.63;;
13785;SDS011;47474;48.824;9.384;2024-03-02T00:48:46;10.67;;;8.40;;
13785;SDS011;47474;48.824;9.384;2024-03-02T00:51:16;10.73;;;8.43;;
13785;SDS011;47474;48.824;9.384;2024-03-02T00:53:45;14.97;;;8.23;;
13785;SDS011;47474;48.824;9.384;2024-03-02T00:56:12;8.50;;;7.67;;
13785;SDS011;47474;48.824;9.384;2024-03-02T00:58:41;10.30;;;7.97;;
13785;SDS011;47474;48.824;9.384;2024-03-02T01:01:07;8.37;;;7.50;;
13785;SDS011;47474;48.824;9.384;2024-03-02T01:03:36;11.07;;;7.97;;
13785;SDS011;47474;48.824;9.384;2024-03-02T01:06:03;8.57;;;6.77;;
13785;SDS011;47474;48.824;9.384;2024-03-02T01:08:31;10.37;;;8.43;;
13785;SDS011;47474;48.824;9.384;2024-03-02T01:10:58;9.87;;;8.43;;
13785;SDS011;47474;48.824;9.384;2024-03-02T01:13:24;10.13;;;8.10;;
13785;SDS011;47474;48.824;9.384;2024-03-02T01:15:51;9.67;;;7.87;;
13785;SDS011;47474;48.824;9.384;2024-03-02T01:18:18;10.53;;;7.93;;
13785;SDS011;47474;48.824;9.384;2024-03-02T01:20:44;12.07;;;8.47;;
13785;SDS011;47474;48.824;9.384;2024-03-02T01:23:11;9.23;;;7.50;;
13785;SDS011;47474;48.824;9.384;2024-03-02T01:25:39;9.20;;;7.40;;
13785;SDS011;47474;48.824;9.384;2024-03-02T01:28:05;8.50;;;7.50;;
13785;SDS011;47474;48.824;9.384;2024-03-02T01:30:32;11.23;;;8.17;;
13785;SDS011;47474;48.824;9.384;2024-03-02T01:32:58;10.83;;;8.30;;
13785;SDS011;47474;48.824;9.384;2024-03-02T01:35:25;11.23;;;8.70;;
13785;SDS011;47474;48.824;9.384;2024-03-02T01:37:52;11.23;;;8.03;;
13785;SDS011;47474;48.824;9.384;2024-03-02T01:40:19;12.20;;;8.90;;
13785;SDS011;47474;48.824;9.384;2024-03-02T01:42:47;12.27;;;9.00;;
13785;SDS011;47474;48.824;9.384;2024-03-02T01:45:13;9.93;;;8.23;;
13785;SDS011;47474;48.824;9.384;2024-03-02T01:47:39;9.87;;;8.40;;
13785;SDS011;47474;48.824;9.384;2024-03-02T01:50:06;9.70;;;8.43;;
13785;SDS011;47474;48.824;9.384;2024-03-02T01:52:33;11.60;;;8.37;;
13785;SDS011;47474;48.824;9.384;2024-03-02T01:55:00;11.47;;;9.00;;
13785;SDS011;47474;48.824;9.384;2024-03-02T01:57:26;11.67;;;9.77;;
13785;SDS011;47474;48.824;9.384;2024-03-02T01:59:54;11.80;;;8.90;;
13785;SDS011;47474;48.824;9.384;2024-03-02T02:02:21;9.37;;;8.17;;
13785;SDS011;47474;48.824;9.384;2024-03-02T02:04:47;10.47;;;8.27;;
13785;SDS011;47474;48.824;9.384;2024-03-02T02:07:14;10.67;;;8.37;;
13785;SDS011;47474;48.824;9.384;2024-03-02T02:09:41;11.80;;;8.83;;
13785;SDS011;47474;48.824;9.384;2024-03-02T02:12:07;10.87;;;8.37;;
13785;SDS011;47474;48.824;9.384;2024-03-02T02:14:34;10.93;;;8.17;;
13785;SDS011;47474;48.824;9.384;2024-03-02T02:17:02;13.63;;;8.70;;
13785;SDS011;47474;48.824;9.384;2024-03-02T02:19:28;10.87;;;8.43;;
13785;SDS011;47474;48.824;9.384;2024-03-02T02:21:56;12.97;;;8.70;;
13785;SDS011;47474;48.824;9.384;2024-03-02T02:24:22;10.37;;;8.37;;
13785;SDS011;47474;48.824;9.384;2024-03-02T02:26:49;9.40;;;8.13;;
13785;SDS011;47474;48.824;9.384;2024-03-02T02:29:15;9.63;;;8.47;;
13785;SDS011;47474;48.824;9.384;2024-03-02T02:31:44;10.83;;;8.53;;
13785;SDS011;47474;48.824;9.384;2024-03-02T02:34:11;11.03;;;9.17;;
13785;SDS011;47474;48.824;9.384;2024-03-02T02:36:38;11.20;;;7.93;;
13785;SDS011;47474;48.824;9.384;2024-03-02T02:39:06;10.13;;;8.77;;
13785;SDS011;47474;48.824;9.384;2024-03-02T02:41:38;10.23;;;7.73;;
13785;SDS011;47474;48.824;9.384;2024-03-02T02:44:04;10.70;;;8.37;;
13785;SDS011;47474;48.824;9.384;2024-03-02T02:46:31;11.10;;;8.40;;
13785;SDS011;47474;48.824;9.384;2024-03-02T02:48:57;11.60;;;8.50;;
13785;SDS011;47474;48.824;9.384;2024-03-02T02:51:24;10.27;;;8.60;;
13785;SDS011;47474;48.824;9.384;2024-03-02T02:53:54;11.17;;;8.73;;
13785;SDS011;47474;48.824;9.384;2024-03-02T02:56:22;14.23;;;8.77;;
13785;SDS011;47474;48.824;9.384;2024-03-02T02:58:48;10.13;;;7.60;;
13785;SDS011;47474;48.824;9.384;2024-03-02T03:01:15;10.47;;;8.23;;
13785;SDS011;47474;48.824;9.384;2024-03-02T03:03:42;12.23;;;8.93;;
13785;SDS011;47474;48.824;9.384;2024-03-02T03:06:08;10.17;;;8.30;;
13785;SDS011;47474;48.824;9.384;2024-03-02T03:08:35;10.23;;;8.37;;
13785;SDS011;47474;48.824;9.384;2024-03-02T03:11:01;10.37;;;8.47;;
13785;SDS011;47474;48.824;9.384;2024-03-02T03:13:29;10.77;;;8.23;;
13785;SDS011;47474;48.824;9.384;2024-03-02T03:15:55;10.77;;;7.50;;
13785;SDS011;47474;48.824;9.384;2024-03-02T03:18:22;10.63;;;8.87;;
13785;SDS011;47474;48.824;9.384;2024-03-02T03:20:48;10.27;;;8.67;;
13785;SDS011;47474;48.824;9.384;2024-03-02T03:23:15;11.20;;;8.80;;
13785;SDS011;47474;48.824;9.384;2024-03-02T03:25:42;11.23;;;8.53;;
13785;SDS011;47474;48.824;9.384;2024-03-02T03:28:08;9.90;;;8.20;;
13785;SDS011;47474;48.824;9.384;2024-03-02T03:30:37;12.80;;;8.83;;
13785;SDS011;47474;48.824;9.384;2024-03-02T03:33:04;12.63;;;9.27;;
13785;SDS011;47474;48.824;9.384;2024-03-02T03:35:31;12.50;;;8.57;;
13785;SDS011;47474;48.824;9.384;2024-03-02T03:37:58;12.37;;;9.37;;
13785;SDS011;47474;48.824;9.384;2024-03-02T03:40:24;9.50;;;8.23;;
13785;SDS011;47474;48.824;9.384;2024-03-02T03:42:51;9.73;;;8.43;;
13785;SDS011;47474;48.824;9.384;2024-03-02T03:45:17;9.07;;;7.70;;
13785;SDS011;47474;48.824;9.384;2024-03-02T03:47:45;11.57;;;8.87;;
13785;SDS011;47474;48.824;9.384;2024-03-02T03:50:11;8.93;;;8.03;;
13785;SDS011;47474;48.824;9.384;2024-03-02T03:52:38;11.13;;;8.30;;
13785;SDS011;47474;48.824;9.384;2024-03-02T03:55:04;11.00;;;8.40;;
13785;SDS011;47474;48.824;9.384;2024-03-02T03:57:31;9.63;;;7.73;;
13785;SDS011;47474;48.824;9.384;2024-03-02T03:59:58;10.50;;;8.63;;
13785;SDS011;47474;48.824;9.384;2024-03-02T04:02:25;10.10;;;7.90;;
13785;SDS011;47474;48.824;9.384;2024-03-02T04:04:53;13.43;;;8.83;;
13785;SDS011;47474;48.824;9.384;2024-03-02T04:07:19;10.37;;;7.73;;
13785;SDS011;47474;48.824;9.384;2024-03-02T04:09:46;13.80;;;9.40;;
13785;SDS011;47474;48.824;9.384;2024-03-02T04:12:12;13.17;;;9.83;;
13785;SDS011;47474;48.824;9.384;2024-03-02T04:14:39;10.77;;;8.07;;
13785;SDS011;47474;48.824;9.384;2024-03-02T04:17:07;13.87;;;9.43;;
13785;SDS011;47474;48.824;9.384;2024-03-02T04:19:35;13.63;;;9.73;;
13785;SDS011;47474;48.824;9.384;2024-03-02T04:22:03;10.87;;;8.67;;
13785;SDS011;47474;48.824;9.384;2024-03-02T04:24:29;12.67;;;9.13;;
13785;SDS011;47474;48.824;9.384;2024-03-02T04:26:56;10.87;;;7.90;;
13785;SDS011;47474;48.824;9.384;2024-03-02T04:29:22;10.90;;;8.50;;
13785;SDS011;47474;48.824;9.384;2024-03-02T04:31:49;10.37;;;8.73;;
13785;SDS011;47474;48.824;9.384;2024-03-02T04:34:15;12.13;;;8.80;;
13785;SDS011;47474;48.824;9.384;2024-03-02T04:36:42;10.27;;;8.33;;
13785;SDS011;47474;48.824;9.384;2024-03-02T04:39:09;10.37;;;8.77;;
13785;SDS011;47474;48.824;9.384;2024-03-02T04:41:36;10.03;;;8.57;;
13785;SDS011;47474;48.824;9.384;2024-03-02T04:44:02;10.53;;;8.13;;
13785;SDS011;47474;48.824;9.384;2024-03-02T04:46:29;13.63;;;9.17;;
13785;SDS011;47474;48.824;9.384;2024-03-02T04:48:55;10.23;;;7.93;;
13785;SDS011;47474;48.824;9.384;2024-03-02T04:51:22;12.37;;;9.23;;
13785;SDS011;47474;48.824;9.384;2024-03-02T04:53:48;11.57;;;9.30;;
13785;SDS011;47474;48.824;9.384;2024-03-02T04:56:16;11.27;;;8.50;;
13785;SDS011;47474;48.824;9.384;2024-03-02T04:59:04;11.17;;;8.43;;
13785;SDS011;47474;48.824;9.384;2024-03-02T05:01:31;10.23;;;8.27;;
13785;SDS011;47474;48.824;9.384;2024-03-02T05:03:57;11.60;;;8.70;;
13785;SDS011;47474;48.824;9.384;2024-03-02T05:06:24;11.40;;;8.47;;
13785;SDS011;47474;48.824;9.384;2024-03-02T05:08:50;9.97;;;8.57;;
13785;SDS011;47474;48.824;9.384;2024-03-02T05:11:18;13.20;;;9.50;;
13785;SDS011;47474;48.824;9.384;2024-03-02T05:14:18;10.50;;;8.37;;
13785;SDS011;47474;48.824;9.384;2024-03-02T05:16:44;9.93;;;8.83;;
13785;SDS011;47474;48.824;9.384;2024-03-02T05:19:11;14.37;;;10.10;;
13785;SDS011;47474;48.824;9.384;2024-03-02T05:21:37;12.13;;;9.73;;
13785;SDS011;47474;48.824;9.384;2024-03-02T05:24:04;12.77;;;9.60;;
13785;SDS011;47474;48.824;9.384;2024-03-02T05:26:32;11.53;;;9.27;;
13785;SDS011;47474;48.824;9.384;2024-03-02T05:28:58;13.77;;;8.60;;
13785;SDS011;47474;48.824;9.384;2024-03-02T05:31:25;12.37;;;9.30;;
13785;SDS011;47474;48.824;9.384;2024-03-02T05:33:53;11.50;;;9.37;;
13785;SDS011;47474;48.824;9.384;2024-03-02T05:36:19;11.57;;;8.87;;
13785;SDS011;47474;48.824;9.384;2024-03-02T05:38:46;11.07;;;8.80;;
13785;SDS011;47474;48.824;9.384;2024-03-02T05:41:13;10.80;;;8.37;;
13785;SDS011;47474;48.824;9.384;2024-03-02T05:43:41;11.47;;;9.60;;
13785;SDS011;47474;48.824;9.384;2024-03-02T05:46:07;10.70;;;8.13;;
13785;SDS011;47474;48.824;9.384;2024-03-02T05:48:34;10.13;;;8.63;;
13785;SDS011;47474;48.824;9.384;2024-03-02T05:51:00;13.13;;;9.20;;
13785;SDS011;47474;48.824;9.384;2024-03-02T05:53:27;11.30;;;8.67;;
13785;SDS011;47474;48.824;9.384;2024-03-02T05:55:53;10.23;;;8.93;;
13785;SDS011;47474;48.824;9.384;2024-03-02T05:58:20;12.43;;;8.83;;
13785;SDS011;47474;48.824;9.384;2024-03-02T06:00:59;11.87;;;8.83;;
13785;SDS011;47474;48.824;9.384;2024-03-02T06:03:25;11.80;;;9.17;;
13785;SDS011;47474;48.824;9.384;2024-03-02T06:05:53;11.50;;;8.80;;
13785;SDS011;47474;48.824;9.384;2024-03-02T06:08:20;10.20;;;7.93;;
13785;SDS011;47474;48.824;9.384;2024-03-02T06:10:46;11.60;;;8.43;;
13785;SDS011;47474;48.824;9.384;2024-03-02T06:13:12;9.13;;;8.03;;
13785;SDS011;47474;48.824;9.384;2024-03-02T06:15:39;10.10;;;8.03;;
13785;SDS011;47474;48.824;9.384;2024-03-02T06:18:07;12.53;;;9.13;;
13785;SDS011;47474;48.824;9.384;2024-03-02T06:20:34;11.27;;;9.20;;
13785;SDS011;47474;48.824;9.384;2024-03-02T06:23:00;12.80;;;9.23;;
13785;SDS011;47474;48.824;9.384;2024-03-02T06:25:27;11.40;;;9.27;;
13785;SDS011;47474;48.824;9.384;2024-03-02T06:27:53;11.43;;;8.57;;
13785;SDS011;47474;48.824;9.384;2024-03-02T06:30:20;12.90;;;10.27;;
13785;SDS011;47474;48.824;9.384;2024-03-02T06:32:46;15.30;;;10.10;;
13785;SDS011;47474;48.824;9.384;2024-03-02T06:35:14;11.93;;;8.73;;
13785;SDS011;47474;48.824;9.384;2024-03-02T06:37:40;11.77;;;9.03;;
13785;SDS011;47474;48.824;9.384;2024-03-02T06:40:07;12.63;;;9.03;;
13785;SDS011;47474;48.824;9.384;2024-03-02T06:42:34;13.70;;;8.90;;
13785;SDS011;47474;48.824;9.384;2024-03-02T06:45:01;13.87;;;10.00;;
13785;SDS011;47474;48.824;9.384;2024-03-02T06:47:28;10.87;;;9.30;;
13785;SDS011;47474;48.824;9.384;2024-03-02T06:49:54;11.80;;;9.40;;
13785;SDS011;47474;48.824;9.384;2024-03-02T06:52:23;10.90;;;8.63;;
13785;SDS011;47474;48.824;9.384;2024-03-02T06:54:50;12.47;;;9.60;;
13785;SDS011;47474;48.824;9.384;2024-03-02T06:57:16;11.87;;;8.60;;
13785;SDS011;47474;48.824;9.384;2024-03-02T06:59:44;11.77;;;9.20;;
13785;SDS011;47474;48.824;9.384;2024-03-02T07:02:11;10.07;;;8.43;;
13785;SDS011;47474;48.824;9.384;2024-03-02T07:04:38;11.50;;;9.17;;
13785;SDS011;47474;48.824;9.384;2024-03-02T07:07:05;12.30;;;9.67;;
13785;SDS011;47474;48.824;9.384;2024-03-02T07:09:34;12.83;;;9.03;;
13785;SDS011;47474;48.824;9.384;2024-03-02T07:12:01;10.83;;;8.67;;
13785;SDS011;47474;48.824;9.384;2024-03-02T07:14:27;13.10;;;9.97;;
13785;SDS011;47474;48.824;9.384;2024-03-02T07:17:08;10.10;;;8.53;;
13785;SDS011;47474;48.824;9.384;2024-03-02T07:19:34;11.33;;;9.60;;
13785;SDS011;47474;48.824;9.384;2024-03-02T07:22:01;11.73;;;9.27;;
13785;SDS011;47474;48.824;9.384;2024-03-02T07:24:27;11.83;;;8.77;;
13785;SDS011;47474;48.824;9.384;2024-03-02T07:26:55;10.73;;;8.93;;
13785;SDS011;47474;48.824;9.384;2024-03-02T07:29:22;13.00;;;9.30;;
13785;SDS011;47474;48.824;9.384;2024-03-02T07:31:48;11.53;;;9.17;;
13785;SDS011;47474;48.824;9.384;2024-03-02T07:34:14;11.30;;;8.83;;
13785;SDS011;47474;48.824;9.384;2024-03-02T07:36:41;12.43;;;9.47;;
13785;SDS011;47474;48.824;9.384;2024-03-02T07:39:07;11.63;;;9.17;;
13785;SDS011;47474;48.824;9.384;2024-03-02T07:41:35;12.63;;;9.47;;
13785;SDS011;47474;48.824;9.384;2024-03-02T07:44:03;12.77;;;9.57;;
13785;SDS011;47474;48.824;9.384;2024-03-02T07:46:29;14.53;;;10.60;;
13785;SDS011;47474;48.824;9.384;2024-03-02T07:48:56;13.30;;;9.87;;
13785;SDS011;47474;48.824;9.384;2024-03-02T07:51:22;13.80;;;8.80;;
13785;SDS011;47474;48.824;9.384;2024-03-02T07:53:49;14.40;;;9.90;;
13785;SDS011;47474;48.824;9.384;2024-03-02T07:56:15;12.63;;;9.50;;
13785;SDS011;47474;48.824;9.384;2024-03-02T07:58:47;13.10;;;9.47;;
13785;SDS011;47474;48.824;9.384;2024-03-02T08:01:15;12.37;;;9.67;;
13785;SDS011;47474;48.824;9.384;2024-03-02T08:03:42;13.70;;;9.60;;
13785;SDS011;47474;48.824;9.384;2024-03-02T08:06:12;11.90;;;9.00;;
13785;SDS011;47474;48.824;9.384;2024-03-02T08:08:39;11.70;;;9.23;;
13785;SDS011;47474;48.824;9.384;2024-03-02T08:11:06;11.20;;;8.73;;
13785;SDS011;47474;48.824;9.384;2024-03-02T08:13:32;12.07;;;8.87;;
13785;SDS011;47474;48.824;9.384;2024-03-02T08:15:59;10.70;;;9.40;;
13785;SDS011;47474;48.824;9.384;2024-03-02T08:18:27;10.23;;;8.63;;
13785;SDS011;47474;48.824;9.384;2024-03-02T08:20:53;11.83;;;8.47;;
13785;SDS011;47474;48.824;9.384;2024-03-02T08:23:20;10.43;;;8.90;;
13785;SDS011;47474;48.824;9.384;2024-03-02T08:25:47;10.83;;;8.73;;
13785;SDS011;47474;48.824;9.384;2024-03-02T08:28:13;10.10;;;8.33;;
13785;SDS011;47474;48.824;9.384;2024-03-02T08:30:40;11.03;;;9.10;;
13785;SDS011;47474;48.824;9.384;2024-03-02T08:33:06;13.63;;;10.13;;
13785;SDS011;47474;48.824;9.384;2024-03-02T08:35:34;11.63;;;8.77;;
13785;SDS011;47474;48.824;9.384;2024-03-02T08:38:01;11.17;;;9.27;;
13785;SDS011;47474;48.824;9.384;2024-03-02T08:40:28;14.07;;;10.67;;
13785;SDS011;47474;48.824;9.384;2024-03-02T08:42:54;11.57;;;10.00;;
13785;SDS011;47474;48.824;9.384;2024-03-02T08:45:20;12.63;;;9.70;;
13785;SDS011;47474;48.824;9.384;2024-03-02T08:47:47;13.90;;;10.40;;
13785;SDS011;47474;48.824;9.384;2024-03-02T08:50:14;10.80;;;9.53;;
13785;SDS011;47474;48.824;9.384;2024-03-02T08:52:42;12.70;;;9.60;;
13785;SDS011;47474;48.824;9.384;2024-03-02T08:55:08;10.90;;;9.20;;
13785;SDS011;47474;48.824;9.384;2024-03-02T08:57:36;12.93;;;9.57;;
13785;SDS011;47474;48.824;9.384;2024-03-02T09:00:03;13.50;;;9.97;;
13785;SDS011;47474;48.824;9.384;2024-03-02T09:02:30;12.90;;;9.50;;
13785;SDS011;47474;48.824;9.384;2024-03-02T09:04:57;11.67;;;9.07;;
13785;SDS011;47474;48.824;9.384;2024-03-02T09:07:23;12.93;;;9.63;;
13785;SDS011;47474;48.824;9.384;2024-03-02T09:09:51;10.50;;;9.03;;
13785;SDS011;47474;48.824;9.384;2024-03-02T09:12:18;10.60;;;8.80;;
13785;SDS011;47474;48.824;9.384;2024-03-02T09:14:45;11.37;;;8.90;;
13785;SDS011;47474;48.824;9.384;2024-03-02T09:17:12;10.93;;;8.80;;
13785;SDS011;47474;48.824;9.384;2024-03-02T09:19:39;11.23;;;8.47;;
13785;SDS011;47474;48.824;9.384;2024-03-02T09:22:05;10.63;;;8.93;;
13785;SDS011;47474;48.824;9.384;2024-03-02T09:24:32;10.93;;;8.57;;
13785;SDS011;47474;48.824;9.384;2024-03-02T09:27:00;8.77;;;7.50;;
13785;SDS011;47474;48.824;9.384;2024-03-02T09:29:26;10.37;;;8.97;;
13785;SDS011;47474;48.824;9.384;2024-03-02T09:31:53;10.07;;;8.90;;
13785;SDS011;47474;48.824;9.384;2024-03-02T09:34:19;9.77;;;8.13;;
13785;SDS011;47474;48.824;9.384;2024-03-02T09:36:47;12.07;;;7.83;;
13785;SDS011;47474;48.824;9.384;2024-03-02T09:39:13;11.83;;;7.97;;
13785;SDS011;47474;48.824;9.384;2024-03-02T09:41:40;8.33;;;6.73;;
13785;SDS011;47474;48.824;9.384;2024-03-02T09:44:08;7.67;;;6.20;;
13785;SDS011;47474;48.824;9.384;2024-03-02T09:46:34;9.10;;;6.63;;
13785;SDS011;47474;48.824;9.384;2024-03-02T09:49:01;8.10;;;5.87;;
13785;SDS011;47474;48.824;9.384;2024-03-02T09:51:28;5.80;;;5.00;;
13785;SDS011;47474;48.824;9.384;2024-03-02T09:53:54;6.30;;;4.90;;
13785;SDS011;47474;48.824;9.384;2024-03-02T09:56:21;5.60;;;4.80;;
13785;SDS011;47474;48.824;9.384;2024-03-02T09:58:47;5.07;;;4.63;;
13785;SDS011;47474;48.824;9.384;2024-03-02T10:01:15;4.60;;;4.10;;
13785;SDS011;47474;48.824;9.384;2024-03-02T10:03:42;5.20;;;4.40;;
13785;SDS011;47474;48.824;9.384;2024-03-02T10:06:20;4.83;;;4.20;;
13785;SDS011;47474;48.824;9.384;2024-03-02T10:08:47;6.73;;;3.83;;
13785;SDS011;47474;48.824;9.384;2024-03-02T10:11:25;3.73;;;3.33;;
13785;SDS011;47474;48.824;9.384;2024-03-02T10:13:59;3.30;;;3.00;;
13785;SDS011;47474;48.824;9.384;2024-03-02T10:16:31;3.43;;;2.93;;
13785;SDS011;47474;48.824;9.384;2024-03-02T10:18:58;3.23;;;2.90;;
13785;SDS011;47474;48.824;9.384;2024-03-02T10:21:24;3.27;;;2.97;;
13785;SDS011;47474;48.824;9.384;2024-03-02T10:23:51;3.43;;;2.80;;
13785;SDS011;47474;48.824;9.384;2024-03-02T10:26:17;5.10;;;3.97;;
13785;SDS011;47474;48.824;9.384;2024-03-02T10:28:45;4.83;;;3.37;;
13785;SDS011;47474;48.824;9.384;2024-03-02T10:31:13;3.20;;;2.60;;
13785;SDS011;47474;48.824;9.384;2024-03-02T10:33:40;3.87;;;2.90;;
13785;SDS011;47474;48.824;9.384;2024-03-02T10:36:07;3.03;;;2.70;;
13785;SDS011;47474;48.824;9.384;2024-03-02T10:38:33;4.57;;;3.10;;
13785;SDS011;47474;48.824;9.384;2024-03-02T10:41:00;3.37;;;2.90;;
13785;SDS011;47474;48.824;9.384;2024-03-02T10:43:28;2.87;;;2.50;;
13785;SDS011;47474;48.824;9.384;2024-03-02T10:45:55;2.63;;;2.23;;
13785;SDS011;47474;48.824;9.384;2024-03-02T10:48:23;2.70;;;2.42;;
13785;SDS011;47474;48.824;9.384;2024-03-02T10:50:53;2.83;;;2.35;;
13785;SDS011;47474;48.824;9.384;2024-03-02T10:53:19;2.15;;;1.95;;
13785;SDS011;47474;48.824;9.384;2024-03-02T10:55:46;2.20;;;2.00;;
13785;SDS011;47474;48.824;9.384;2024-03-02T10:58:16;2.13;;;1.88;;
13785;SDS011;47474;48.824;9.384;2024-03-02T11:00:43;2.42;;;1.70;;
13785;SDS011;47474;48.824;9.384;2024-03-02T11:03:10;2.35;;;2.15;;
13785;SDS011;47474;48.824;9.384;2024-03-02T11:05:39;2.30;;;1.92;;
13785;SDS011;47474;48.824;9.384;2024-03-02T11:08:12;2.85;;;2.40;;
13785;SDS011;47474;48.824;9.384;2024-03-02T11:10:41;2.38;;;2.00;;
13785;SDS011;47474;48.824;9.384;2024-03-02T11:13:08;2.20;;;2.00;;
13785;SDS011;47474;48.824;9.384;2024-03-02T11:15:35;2.55;;;2.15;;
13785;SDS011;47474;48.824;9.384;2024-03-02T11:18:03;4.13;;;2.42;;
13785;SDS011;47474;48.824;9.384;2024-03-02T11:20:33;2.25;;;2.05;;
13785;SDS011;47474;48.824;9.384;2024-03-02T11:23:04;1.95;;;1.77;;
13785;SDS011;47474;48.824;9.384;2024-03-02T11:25:33;2.42;;;2.22;;
13785;SDS011;47474;48.824;9.384;2024-03-02T11:28:00;2.25;;;1.88;;
13785;SDS011;47474;48.824;9.384;2024-03-02T11:33:22;2.15;;;1.70;;
13785;SDS011;47474;48.824;9.384;2024-03-02T11:35:52;1.75;;;1.63;;
13785;SDS011;47474;48.824;9.384;2024-03-02T11:38:18;1.63;;;1.50;;
13785;SDS011;47474;48.824;9.384;2024-03-02T11:40:46;2.33;;;1.48;;
13785;SDS011;47474;48.824;9.384;2024-03-02T11:43:13;1.50;;;1.40;;
13785;SDS011;47474;48.824;9.384;2024-03-02T11:45:41;1.85;;;1.25;;
13785;SDS011;47474;48.824;9.384;2024-03-02T11:48:09;1.50;;;1.30;;
13785;SDS011;47474;48.824;9.384;2024-03-02T11:50:39;1.77;;;0.95;;
13785;SDS011;47474;48.824;9.384;2024-03-02T11:53:08;1.33;;;1.20;;
13785;SDS011;47474;48.824;9.384;2024-03-02T11:55:35;1.65;;;1.30;;
13785;SDS011;47474;48.824;9.384;2024-03-02T11:58:04;1.20;;;1.10;;
13785;SDS011;47474;48.824;9.384;2024-03-02T12:00:30;1.65;;;1.50;;
13785;SDS011;47474;48.824;9.384;2024-03-02T12:02:59;2.08;;;1.10;;
13785;SDS011;47474;48.824;9.384;2024-03-02T12:05:25;1.20;;;1.10;;
13785;SDS011;47474;48.824;9.384;2024-03-02T12:07:55;1.40;;;1.30;;
13785;SDS011;47474;48.824;9.384;2024-03-02T12:10:22;1.10;;;1.00;;
13785;SDS011;47474;48.824;9.384;2024-03-02T12:12:54;1.88;;;1.00;;
13785;SDS011;47474;48.824;9.384;2024-03-02T12:15:24;1.00;;;0.90;;
13785;SDS011;47474;48.824;9.384;2024-03-02T12:17:55;1.33;;;1.20;;
13785;SDS011;47474;48.824;9.384;2024-03-02T12:20:21;1.20;;;1.10;;
13785;SDS011;47474;48.824;9.384;2024-03-02T12:22:49;1.10;;;1.00;;
13785;SDS011;47474;48.824;9.384;2024-03-02T12:25:17;4.53;;;1.20;;
13785;SDS011;47474;48.824;9.384;2024-03-02T12:27:43;0.90;;;0.90;;
13785;SDS011;47474;48.824;9.384;2024-03-02T12:30:11;1.00;;;1.00;;
13785;SDS011;47474;48.824;9.384;2024-03-02T12:32:40;1.17;;;0.90;;
13785;SDS011;47474;48.824;9.384;2024-03-02T12:35:07;1.35;;;1.02;;
13785;SDS011;47474;48.824;9.384;2024-03-02T12:37:37;1.23;;;1.13;;
13785;SDS011;47474;48.824;9.384;2024-03-02T12:40:09;23.35;;;2.38;;
13785;SDS011;47474;48.824;9.384;2024-03-02T12:42:36;1.65;;;1.30;;
13785;SDS011;47474;48.824;9.384;2024-03-02T12:45:02;1.20;;;1.10;;
13785;SDS011;47474;48.824;9.384;2024-03-02T12:47:29;1.35;;;1.25;;
13785;SDS011;47474;48.824;9.384;2024-03-02T12:49:57;1.13;;;1.02;;
13785;SDS011;47474;48.824;9.384;2024-03-02T12:52:24;1.27;;;1.17;;
13785;SDS011;47474;48.824;9.384;2024-03-02T12:54:51;2.42;;;1.33;;
13785;SDS011;47474;48.824;9.384;2024-03-02T12:57:24;2.70;;;1.90;;
13785;SDS011;47474;48.824;9.384;2024-03-02T12:59:51;1.38;;;1.27;;
13785;SDS011;47474;48.824;9.384;2024-03-02T13:02:18;1.50;;;1.40;;
13785;SDS011;47474;48.824;9.384;2024-03-02T13:04:51;1.60;;;1.42;;
13785;SDS011;47474;48.824;9.384;2024-03-02T13:07:19;1.45;;;1.35;;
13785;SDS011;47474;48.824;9.384;2024-03-02T13:09:47;1.60;;;1.50;;
13785;SDS011;47474;48.824;9.384;2024-03-02T13:12:14;1.20;;;1.10;;
13785;SDS011;47474;48.824;9.384;2024-03-02T13:14:41;1.88;;;1.50;;
13785;SDS011;47474;48.824;9.384;2024-03-02T13:17:07;1.63;;;1.20;;
13785;SDS011;47474;48.824;9.384;2024-03-02T13:19:34;2.05;;;1.13;;
13785;SDS011;47474;48.824;9.384;2024-03-02T13:22:01;2.80;;;1.58;;
13785;SDS011;47474;48.824;9.384;2024-03-02T13:24:29;1.38;;;1.27;;
13785;SDS011;47474;48.824;9.384;2024-03-02T13:26:56;1.30;;;1.08;;
13785;SDS011;47474;48.824;9.384;2024-03-02T13:29:23;1.17;;;1.08;;
13785;SDS011;47474;48.824;9.384;2024-03-02T13:31:50;1.55;;;1.10;;
13785;SDS011;47474;48.824;9.384;2024-03-02T13:34:16;1.20;;;1.10;;
13785;SDS011;47474;48.824;9.384;2024-03-02T13:36:43;1.20;;;1.08;;
13785;SDS011;47474;48.824;9.384;2024-03-02T13:39:09;1.33;;;1.00;;
13785;SDS011;47474;48.824;9.384;2024-03-02T13:41:37;1.45;;;1.15;;
13785;SDS011;47474;48.824;9.384;2024-03-02T13:44:03;1.50;;;1.40;;
13785;SDS011;47474;48.824;9.384;2024-03-02T13:46:30;1.10;;;1.00;;
13785;SDS011;47474;48.824;9.384;2024-03-02T13:48:56;1.10;;;1.00;;
13785;SDS011;47474;48.824;9.384;2024-03-02T13:51:23;1.15;;;1.05;;
13785;SDS011;47474;48.824;9.384;2024-03-02T13:53:50;1.65;;;1.20;;
13785;SDS011;47474;48.824;9.384;2024-03-02T13:56:16;1.20;;;1.00;;
13785;SDS011;47474;48.824;9.384;2024-03-02T13:58:44;1.50;;;1.13;;
13785;SDS011;47474;48.824;9.384;2024-03-02T14:01:11;1.17;;;0.90;;
13785;SDS011;47474;48.824;9.384;2024-03-02T14:03:37;3.05;;;0.80;;
13785;SDS011;47474;48.824;9.384;2024-03-02T14:06:04;6.32;;;4.32;;
13785;SDS011;47474;48.824;9.384;2024-03-02T14:08:31;1.60;;;1.50;;
13785;SDS011;47474;48.824;9.384;2024-03-02T14:10:59;1.45;;;1.27;;
13785;SDS011;47474;48.824;9.384;2024-03-02T14:13:27;1.30;;;1.00;;
13785;SDS011;47474;48.824;9.384;2024-03-02T14:15:55;1.25;;;1.00;;
13785;SDS011;47474;48.824;9.384;2024-03-02T14:18:23;1.33;;;1.10;;
13785;SDS011;47474;48.824;9.384;2024-03-02T14:20:49;0.70;;;0.70;;
13785;SDS011;47474;48.824;9.384;2024-03-02T14:23:17;1.27;;;1.17;;
13785;SDS011;47474;48.824;9.384;2024-03-02T14:25:44;0.95;;;0.85;;
13785;SDS011;47474;48.824;9.384;2024-03-02T14:28:10;0.73;;;0.73;;
13785;SDS011;47474;48.824;9.384;2024-03-02T14:30:37;1.20;;;0.93;;
13785;SDS011;47474;48.824;9.384;2024-03-02T14:33:05;0.80;;;0.80;;
13785;SDS011;47474;48.824;9.384;2024-03-02T14:35:32;1.20;;;0.90;;
13785;SDS011;47474;48.824;9.384;2024-03-02T14:37:59;0.73;;;0.73;;
13785;SDS011;47474;48.824;9.384;2024-03-02T14:40:25;0.80;;;0.75;;
13785;SDS011;47474;48.824;9.384;2024-03-02T14:42:54;1.48;;;1.00;;
13785;SDS011;47474;48.824;9.384;2024-03-02T14:45:20;1.05;;;0.95;;
13785;SDS011;47474;48.824;9.384;2024-03-02T14:47:48;2.58;;;1.90;;